sensor_id;sensor_type;location;lat;lon;timestamp;pressure;altitude;pressure_sealevel;temperature;humidity
45793;BME280;31495;42.740;22.908;2022-10-16T00:01:05;93726.25;;;6.91;72.48
45793;BME280;31495;42.740;22.908;2022-10-16T00:02:05;93712.63;;;6.82;72.27
45793;BME280;31495;42.740;22.908;2022-10-16T00:03:05;93747.41;;;7.01;71.99
45793;BME280;31495;42.740;22.908;2022-10-16T00:04:05;93719.56;;;6.81;72.33
45793;BME280;31495;42.740;22.908;2022-10-16T00:05:04;93716.53;;;6.78;72.60
45793;BME280;31495;42.740;22.908;2022-10-16T00:06:05;93734.16;;;6.89;72.25
45793;BME280;31495;42.740;22.908;2022-10-16T00:07:05;93734.94;;;6.90;72.03
45793;BME280;31495;42.740;22.908;2022-10-16T00:08:05;93714.38;;;6.67;72.04
45793;BME280;31495;42.740;22.908;2022-10-16T00:09:06;93720.84;;;6.62;72.67
45793;BME280;31495;42.740;22.908;2022-10-16T00:10:06;93756.91;;;6.77;73.05
45793;BME280;31495;42.740;22.908;2022-10-16T00:11:08;93754.31;;;6.77;72.96
45793;BME280;31495;42.740;22.908;2022-10-16T00:12:08;93726.31;;;6.59;72.97
45793;BME280;31495;42.740;22.908;2022-10-16T00:13:08;93729.69;;;6.60;72.93
45793;BME280;31495;42.740;22.908;2022-10-16T00:14:10;93763.63;;;6.78;72.84
45793;BME280;31495;42.740;22.908;2022-10-16T00:15:10;93688.88;;;6.34;72.42
45793;BME280;31495;42.740;22.908;2022-10-16T00:16:10;93749.69;;;6.73;72.00
45793;BME280;31495;42.740;22.908;2022-10-16T00:17:10;93731.97;;;6.55;71.99
45793;BME280;31495;42.740;22.908;2022-10-16T00:18:09;93736.47;;;6.53;72.52
45793;BME280;31495;42.740;22.908;2022-10-16T00:19:10;93751.31;;;6.66;72.67
45793;BME280;31495;42.740;22.908;2022-10-16T00:20:10;93717.88;;;6.42;72.42
45793;BME280;31495;42.740;22.908;2022-10-16T00:21:12;93762.16;;;6.61;72.49
45793;BME280;31495;42.740;22.908;2022-10-16T00:22:12;93705.94;;;6.27;72.33
45793;BME280;31495;42.740;22.908;2022-10-16T00:23:11;93729.31;;;6.40;72.65
45793;BME280;31495;42.740;22.908;2022-10-16T00:24:11;93753.59;;;6.60;72.45
45793;BME280;31495;42.740;22.908;2022-10-16T00:25:11;93730.56;;;6.44;72.21
45793;BME280;31495;42.740;22.908;2022-10-16T00:26:13;93736.38;;;6.46;72.19
45793;BME280;31495;42.740;22.908;2022-10-16T00:27:13;93708.63;;;6.33;72.24
45793;BME280;31495;42.740;22.908;2022-10-16T00:28:13;93752.19;;;6.58;72.26
45793;BME280;31495;42.740;22.908;2022-10-16T00:29:12;93734.06;;;6.51;72.32
45793;BME280;31495;42.740;22.908;2022-10-16T00:30:11;93725.25;;;6.46;72.02
45793;BME280;31495;42.740;22.908;2022-10-16T00:31:11;93761.97;;;6.62;71.60
45793;BME280;31495;42.740;22.908;2022-10-16T00:32:12;93746.59;;;6.54;71.40
45793;BME280;31495;42.740;22.908;2022-10-16T00:33:11;93730.44;;;6.37;71.48
45793;BME280;31495;42.740;22.908;2022-10-16T00:34:10;93741.06;;;6.34;71.85
45793;BME280;31495;42.740;22.908;2022-10-16T00:35:10;93766.56;;;6.44;71.88
45793;BME280;31495;42.740;22.908;2022-10-16T00:36:12;93760.97;;;6.40;72.07
45793;BME280;31495;42.740;22.908;2022-10-16T00:37:13;93765.63;;;6.37;72.26
45793;BME280;31495;42.740;22.908;2022-10-16T00:38:12;93760.41;;;6.22;72.13
45793;BME280;31495;42.740;22.908;2022-10-16T00:39:11;93717.31;;;5.93;72.31
45793;BME280;31495;42.740;22.908;2022-10-16T00:40:11;93743.41;;;6.13;72.51
45793;BME280;31495;42.740;22.908;2022-10-16T00:41:13;93752.53;;;6.23;72.20
45793;BME280;31495;42.740;22.908;2022-10-16T00:42:18;93734.41;;;6.17;72.33
45793;BME280;31495;42.740;22.908;2022-10-16T00:44:53;93759.91;;;6.27;72.46
45793;BME280;31495;42.740;22.908;2022-10-16T00:45:53;93734.31;;;6.02;72.43
45793;BME280;31495;42.740;22.908;2022-10-16T00:46:52;93737.84;;;6.01;72.29
45793;BME280;31495;42.740;22.908;2022-10-16T00:47:54;93736.91;;;6.02;72.39
45793;BME280;31495;42.740;22.908;2022-10-16T00:48:57;93769.25;;;6.19;72.60
45793;BME280;31495;42.740;22.908;2022-10-16T00:50:06;93771.50;;;6.14;72.52
45793;BME280;31495;42.740;22.908;2022-10-16T00:51:07;93713.19;;;5.75;72.42
45793;BME280;31495;42.740;22.908;2022-10-16T00:52:07;93755.66;;;6.02;72.91
45793;BME280;31495;42.740;22.908;2022-10-16T00:53:07;93728.22;;;5.86;72.97
45793;BME280;31495;42.740;22.908;2022-10-16T00:54:11;93769.91;;;6.13;72.78
45793;BME280;31495;42.740;22.908;2022-10-16T00:55:12;93761.41;;;6.13;72.77
45793;BME280;31495;42.740;22.908;2022-10-16T00:56:11;93744.94;;;5.99;72.86
45793;BME280;31495;42.740;22.908;2022-10-16T00:57:11;93740.91;;;5.96;72.89
45793;BME280;31495;42.740;22.908;2022-10-16T00:58:11;93719.91;;;5.84;72.92
45793;BME280;31495;42.740;22.908;2022-10-16T00:59:18;93770.06;;;6.20;72.79
45793;BME280;31495;42.740;22.908;2022-10-16T01:00:21;93763.97;;;6.13;72.78
45793;BME280;31495;42.740;22.908;2022-10-16T01:01:21;93732.41;;;5.87;73.12
45793;BME280;31495;42.740;22.908;2022-10-16T01:02:21;93771.34;;;6.16;73.09
45793;BME280;31495;42.740;22.908;2022-10-16T01:04:26;93757.56;;;6.09;72.83
45793;BME280;31495;42.740;22.908;2022-10-16T01:05:34;93738.97;;;5.98;72.83
45793;BME280;31495;42.740;22.908;2022-10-16T01:08:14;93761.81;;;6.24;74.17
45793;BME280;31495;42.740;22.908;2022-10-16T01:09:24;93767.28;;;6.21;74.35
45793;BME280;31495;42.740;22.908;2022-10-16T01:10:40;93741.34;;;6.08;74.46
45793;BME280;31495;42.740;22.908;2022-10-16T01:11:57;93764.22;;;6.26;74.75
45793;BME280;31495;42.740;22.908;2022-10-16T01:13:05;93721.47;;;6.02;74.61
45793;BME280;31495;42.740;22.908;2022-10-16T01:14:13;93738.75;;;6.16;74.27
45793;BME280;31495;42.740;22.908;2022-10-16T01:16:32;93696.59;;;5.94;73.34
45793;BME280;31495;42.740;22.908;2022-10-16T01:17:46;93756.34;;;6.28;73.03
45793;BME280;31495;42.740;22.908;2022-10-16T01:19:05;93751.88;;;6.30;72.69
45793;BME280;31495;42.740;22.908;2022-10-16T01:21:17;93747.13;;;6.10;72.38
45793;BME280;31495;42.740;22.908;2022-10-16T01:22:21;93741.22;;;6.01;72.40
45793;BME280;31495;42.740;22.908;2022-10-16T01:23:49;93734.47;;;6.09;72.21
45793;BME280;31495;42.740;22.908;2022-10-16T01:24:54;93725.81;;;5.93;72.39
45793;BME280;31495;42.740;22.908;2022-10-16T01:27:32;93750.03;;;6.07;72.56
45793;BME280;31495;42.740;22.908;2022-10-16T01:28:41;93735.44;;;5.91;72.35
45793;BME280;31495;42.740;22.908;2022-10-16T01:30:57;93715.63;;;5.68;72.52
45793;BME280;31495;42.740;22.908;2022-10-16T01:32:00;93730.84;;;5.78;72.23
45793;BME280;31495;42.740;22.908;2022-10-16T01:33:15;93759.34;;;6.00;72.28
45793;BME280;31495;42.740;22.908;2022-10-16T01:34:19;93761.75;;;5.93;72.63
45793;BME280;31495;42.740;22.908;2022-10-16T01:35:41;93728.28;;;5.70;72.59
45793;BME280;31495;42.740;22.908;2022-10-16T01:36:48;93746.03;;;5.88;72.60
45793;BME280;31495;42.740;22.908;2022-10-16T01:37:54;93735.16;;;5.86;72.26
45793;BME280;31495;42.740;22.908;2022-10-16T01:38:56;93737.38;;;5.89;72.06
45793;BME280;31495;42.740;22.908;2022-10-16T01:40:02;93768.19;;;6.05;72.29
45793;BME280;31495;42.740;22.908;2022-10-16T01:41:09;93748.63;;;5.88;72.19
45793;BME280;31495;42.740;22.908;2022-10-16T01:42:15;93729.56;;;5.74;72.50
45793;BME280;31495;42.740;22.908;2022-10-16T01:43:24;93693.22;;;5.46;72.50
45793;BME280;31495;42.740;22.908;2022-10-16T01:44:29;93728.44;;;5.68;72.59
45793;BME280;31495;42.740;22.908;2022-10-16T01:45:31;93749.75;;;5.85;72.29
45793;BME280;31495;42.740;22.908;2022-10-16T01:46:33;93757.63;;;5.84;72.48
45793;BME280;31495;42.740;22.908;2022-10-16T01:47:35;93692.59;;;5.36;72.49
45793;BME280;31495;42.740;22.908;2022-10-16T01:48:35;93721.94;;;5.49;72.56
45793;BME280;31495;42.740;22.908;2022-10-16T01:49:37;93767.44;;;5.72;72.96
45793;BME280;31495;42.740;22.908;2022-10-16T01:50:39;93754.63;;;5.64;72.73
45793;BME280;31495;42.740;22.908;2022-10-16T01:51:44;93785.22;;;5.82;72.60
45793;BME280;31495;42.740;22.908;2022-10-16T01:52:46;93783.16;;;5.77;72.38
45793;BME280;31495;42.740;22.908;2022-10-16T01:53:51;93781.41;;;5.78;72.66
45793;BME280;31495;42.740;22.908;2022-10-16T01:54:53;93758.31;;;5.61;72.43
45793;BME280;31495;42.740;22.908;2022-10-16T01:55:55;93759.28;;;5.60;72.44
45793;BME280;31495;42.740;22.908;2022-10-16T01:56:58;93780.94;;;5.74;72.44
45793;BME280;31495;42.740;22.908;2022-10-16T01:57:59;93786.38;;;5.71;72.33
45793;BME280;31495;42.740;22.908;2022-10-16T01:59:06;93779.97;;;5.67;72.54
45793;BME280;31495;42.740;22.908;2022-10-16T02:00:12;93739.25;;;5.39;72.36
45793;BME280;31495;42.740;22.908;2022-10-16T02:01:15;93774.34;;;5.63;72.59
45793;BME280;31495;42.740;22.908;2022-10-16T02:02:18;93743.59;;;5.47;73.00
45793;BME280;31495;42.740;22.908;2022-10-16T02:03:19;93731.41;;;5.41;72.65
45793;BME280;31495;42.740;22.908;2022-10-16T02:04:48;93767.13;;;5.59;72.91
45793;BME280;31495;42.740;22.908;2022-10-16T02:05:54;93763.31;;;5.55;73.09
45793;BME280;31495;42.740;22.908;2022-10-16T02:06:55;93781.91;;;5.65;73.25
45793;BME280;31495;42.740;22.908;2022-10-16T02:07:54;93768.13;;;5.58;73.19
45793;BME280;31495;42.740;22.908;2022-10-16T02:08:54;93751.44;;;5.45;72.96
45793;BME280;31495;42.740;22.908;2022-10-16T02:09:54;93746.00;;;5.40;72.94
45793;BME280;31495;42.740;22.908;2022-10-16T02:10:58;93788.47;;;5.76;72.99
45793;BME280;31495;42.740;22.908;2022-10-16T02:12:03;93793.59;;;5.76;72.94
45793;BME280;31495;42.740;22.908;2022-10-16T02:13:13;93794.72;;;5.73;72.78
45793;BME280;31495;42.740;22.908;2022-10-16T02:14:15;93765.06;;;5.54;72.86
45793;BME280;31495;42.740;22.908;2022-10-16T02:15:15;93759.78;;;5.47;73.00
45793;BME280;31495;42.740;22.908;2022-10-16T02:16:14;93764.75;;;5.49;73.01
45793;BME280;31495;42.740;22.908;2022-10-16T02:17:16;93783.69;;;5.64;72.93
45793;BME280;31495;42.740;22.908;2022-10-16T02:18:16;93778.41;;;5.58;72.98
45793;BME280;31495;42.740;22.908;2022-10-16T02:19:17;93794.41;;;5.68;73.12
45793;BME280;31495;42.740;22.908;2022-10-16T02:20:26;93740.25;;;5.38;72.81
45793;BME280;31495;42.740;22.908;2022-10-16T02:21:30;93776.94;;;5.63;72.85
45793;BME280;31495;42.740;22.908;2022-10-16T02:22:39;93795.22;;;5.68;73.07
45793;BME280;31495;42.740;22.908;2022-10-16T02:23:53;93787.97;;;5.72;72.77
45793;BME280;31495;42.740;22.908;2022-10-16T02:24:58;93775.66;;;5.59;72.97
45793;BME280;31495;42.740;22.908;2022-10-16T02:25:59;93787.97;;;5.72;72.72
45793;BME280;31495;42.740;22.908;2022-10-16T02:27:07;93746.50;;;5.36;72.84
45793;BME280;31495;42.740;22.908;2022-10-16T02:28:22;93788.81;;;5.64;72.77
45793;BME280;31495;42.740;22.908;2022-10-16T02:29:25;93747.47;;;5.26;72.87
45793;BME280;31495;42.740;22.908;2022-10-16T02:30:32;93802.59;;;5.63;73.08
45793;BME280;31495;42.740;22.908;2022-10-16T02:31:36;93755.31;;;5.33;73.02
45793;BME280;31495;42.740;22.908;2022-10-16T02:32:40;93803.56;;;5.62;73.09
45793;BME280;31495;42.740;22.908;2022-10-16T02:33:42;93794.75;;;5.57;73.36
45793;BME280;31495;42.740;22.908;2022-10-16T02:34:44;93763.00;;;5.41;72.95
45793;BME280;31495;42.740;22.908;2022-10-16T02:35:46;93802.13;;;5.60;72.98
45793;BME280;31495;42.740;22.908;2022-10-16T02:36:48;93780.31;;;5.39;73.34
45793;BME280;31495;42.740;22.908;2022-10-16T02:37:49;93774.56;;;5.29;73.78
45793;BME280;31495;42.740;22.908;2022-10-16T02:38:50;93798.28;;;5.47;73.62
45793;BME280;31495;42.740;22.908;2022-10-16T02:39:50;93805.19;;;5.47;73.41
45793;BME280;31495;42.740;22.908;2022-10-16T02:40:50;93783.06;;;5.29;73.51
45793;BME280;31495;42.740;22.908;2022-10-16T02:41:50;93714.94;;;4.94;73.50
45793;BME280;31495;42.740;22.908;2022-10-16T02:42:51;93792.84;;;5.42;73.70
45793;BME280;31495;42.740;22.908;2022-10-16T02:43:51;93802.63;;;5.47;73.93
45793;BME280;31495;42.740;22.908;2022-10-16T02:44:51;93778.59;;;5.31;73.46
45793;BME280;31495;42.740;22.908;2022-10-16T02:45:50;93814.81;;;5.53;73.37
45793;BME280;31495;42.740;22.908;2022-10-16T02:46:50;93770.56;;;5.34;72.96
45793;BME280;31495;42.740;22.908;2022-10-16T02:47:49;93816.75;;;5.59;72.70
45793;BME280;31495;42.740;22.908;2022-10-16T02:48:49;93787.06;;;5.40;72.63
45793;BME280;31495;42.740;22.908;2022-10-16T02:49:48;93770.06;;;5.31;72.64
45793;BME280;31495;42.740;22.908;2022-10-16T02:50:48;93793.66;;;5.43;72.74
45793;BME280;31495;42.740;22.908;2022-10-16T02:51:47;93776.97;;;5.30;72.73
45793;BME280;31495;42.740;22.908;2022-10-16T02:52:46;93794.28;;;5.37;72.90
45793;BME280;31495;42.740;22.908;2022-10-16T02:53:46;93791.88;;;5.35;73.03
45793;BME280;31495;42.740;22.908;2022-10-16T02:54:46;93806.28;;;5.44;73.22
45793;BME280;31495;42.740;22.908;2022-10-16T02:55:45;93750.84;;;5.10;73.06
45793;BME280;31495;42.740;22.908;2022-10-16T02:56:44;93784.66;;;5.30;73.02
45793;BME280;31495;42.740;22.908;2022-10-16T02:57:44;93756.94;;;5.18;72.99
45793;BME280;31495;42.740;22.908;2022-10-16T02:58:43;93788.69;;;5.33;73.07
45793;BME280;31495;42.740;22.908;2022-10-16T02:59:43;93784.81;;;5.29;73.24
45793;BME280;31495;42.740;22.908;2022-10-16T03:00:43;93756.78;;;5.11;73.09
45793;BME280;31495;42.740;22.908;2022-10-16T03:01:43;93723.13;;;4.89;72.83
45793;BME280;31495;42.740;22.908;2022-10-16T03:02:43;93764.63;;;5.26;72.76
45793;BME280;31495;42.740;22.908;2022-10-16T03:03:43;93797.16;;;5.42;72.68
45793;BME280;31495;42.740;22.908;2022-10-16T03:04:42;93784.66;;;5.30;72.71
45793;BME280;31495;42.740;22.908;2022-10-16T03:05:43;93790.28;;;5.34;72.76
45793;BME280;31495;42.740;22.908;2022-10-16T03:06:44;93794.78;;;5.32;72.80
45793;BME280;31495;42.740;22.908;2022-10-16T03:07:44;93787.06;;;5.32;72.80
45793;BME280;31495;42.740;22.908;2022-10-16T03:08:43;93777.91;;;5.29;72.59
45793;BME280;31495;42.740;22.908;2022-10-16T03:09:43;93760.63;;;5.23;72.44
45793;BME280;31495;42.740;22.908;2022-10-16T03:10:42;93781.16;;;5.40;72.47
45793;BME280;31495;42.740;22.908;2022-10-16T03:11:42;93791.09;;;5.43;72.37
45793;BME280;31495;42.740;22.908;2022-10-16T03:12:41;93806.78;;;5.48;72.38
45793;BME280;31495;42.740;22.908;2022-10-16T03:13:41;93811.44;;;5.44;72.47
45793;BME280;31495;42.740;22.908;2022-10-16T03:14:40;93802.31;;;5.33;72.59
45793;BME280;31495;42.740;22.908;2022-10-16T03:15:40;93810.78;;;5.42;72.50
45793;BME280;31495;42.740;22.908;2022-10-16T03:16:39;93806.66;;;5.41;72.60
45793;BME280;31495;42.740;22.908;2022-10-16T03:17:38;93783.22;;;5.28;72.53
45793;BME280;31495;42.740;22.908;2022-10-16T03:18:38;93808.22;;;5.42;72.64
45793;BME280;31495;42.740;22.908;2022-10-16T03:19:37;93807.75;;;5.39;72.66
45793;BME280;31495;42.740;22.908;2022-10-16T03:20:37;93814.19;;;5.43;72.34
45793;BME280;31495;42.740;22.908;2022-10-16T03:21:37;93789.47;;;5.25;72.28
45793;BME280;31495;42.740;22.908;2022-10-16T03:22:36;93813.22;;;5.36;72.78
45793;BME280;31495;42.740;22.908;2022-10-16T03:23:35;93821.69;;;5.36;72.70
45793;BME280;31495;42.740;22.908;2022-10-16T03:24:35;93796.03;;;5.20;72.28
45793;BME280;31495;42.740;22.908;2022-10-16T03:25:35;93794.13;;;5.22;72.41
45793;BME280;31495;42.740;22.908;2022-10-16T03:26:34;93787.22;;;5.14;72.40
45793;BME280;31495;42.740;22.908;2022-10-16T03:27:33;93775.03;;;5.08;72.67
45793;BME280;31495;42.740;22.908;2022-10-16T03:28:33;93814.97;;;5.35;72.91
45793;BME280;31495;42.740;22.908;2022-10-16T03:29:32;93813.69;;;5.39;73.00
45793;BME280;31495;42.740;22.908;2022-10-16T03:30:32;93798.44;;;5.21;72.60
45793;BME280;31495;42.740;22.908;2022-10-16T03:31:32;93818.97;;;5.38;72.33
45793;BME280;31495;42.740;22.908;2022-10-16T03:32:32;93749.41;;;5.00;72.04
45793;BME280;31495;42.740;22.908;2022-10-16T03:33:31;93812.09;;;5.46;71.94
45793;BME280;31495;42.740;22.908;2022-10-16T03:34:31;93805.19;;;5.39;71.58
45793;BME280;31495;42.740;22.908;2022-10-16T03:35:31;93820.75;;;5.45;72.02
45793;BME280;31495;42.740;22.908;2022-10-16T03:36:32;93771.22;;;5.12;71.87
45793;BME280;31495;42.740;22.908;2022-10-16T03:37:31;93821.53;;;5.46;72.26
45793;BME280;31495;42.740;22.908;2022-10-16T03:38:32;93805.19;;;5.30;72.37
45793;BME280;31495;42.740;22.908;2022-10-16T03:39:31;93810.66;;;5.27;73.10
45793;BME280;31495;42.740;22.908;2022-10-16T03:40:31;93798.94;;;5.25;73.14
45793;BME280;31495;42.740;22.908;2022-10-16T03:41:33;93803.25;;;5.24;73.29
45793;BME280;31495;42.740;22.908;2022-10-16T03:42:33;93790.28;;;5.18;73.15
45793;BME280;31495;42.740;22.908;2022-10-16T03:43:32;93741.84;;;4.82;73.29
45793;BME280;31495;42.740;22.908;2022-10-16T03:44:31;93822.53;;;5.28;73.70
45793;BME280;31495;42.740;22.908;2022-10-16T03:45:31;93827.34;;;5.31;74.16
45793;BME280;31495;42.740;22.908;2022-10-16T03:46:30;93814.81;;;5.28;74.22
45793;BME280;31495;42.740;22.908;2022-10-16T03:47:30;93796.38;;;5.17;74.30
45793;BME280;31495;42.740;22.908;2022-10-16T03:48:32;93823.78;;;5.24;74.36
45793;BME280;31495;42.740;22.908;2022-10-16T03:49:31;93776.97;;;4.97;74.36
45793;BME280;31495;42.740;22.908;2022-10-16T03:50:31;93784.97;;;5.03;74.37
45793;BME280;31495;42.740;22.908;2022-10-16T03:51:30;93785.16;;;5.01;74.63
45793;BME280;31495;42.740;22.908;2022-10-16T03:52:30;93812.41;;;5.27;74.70
45793;BME280;31495;42.740;22.908;2022-10-16T03:53:31;93786.28;;;5.15;74.99
45793;BME280;31495;42.740;22.908;2022-10-16T03:54:30;93820.44;;;5.40;74.78
45793;BME280;31495;42.740;22.908;2022-10-16T03:55:30;93774.09;;;5.09;74.88
45793;BME280;31495;42.740;22.908;2022-10-16T03:56:29;93818.19;;;5.37;74.39
45793;BME280;31495;42.740;22.908;2022-10-16T03:57:28;93761.91;;;5.03;74.58
45793;BME280;31495;42.740;22.908;2022-10-16T03:58:28;93803.59;;;5.29;74.21
45793;BME280;31495;42.740;22.908;2022-10-16T03:59:28;93795.56;;;5.24;74.53
45793;BME280;31495;42.740;22.908;2022-10-16T04:00:27;93802.00;;;5.28;74.87
45793;BME280;31495;42.740;22.908;2022-10-16T04:01:26;93811.44;;;5.36;75.28
45793;BME280;31495;42.740;22.908;2022-10-16T04:02:26;93784.66;;;5.22;75.22
45793;BME280;31495;42.740;22.908;2022-10-16T04:03:25;93809.06;;;5.43;75.05
45793;BME280;31495;42.740;22.908;2022-10-16T04:04:25;93799.59;;;5.35;74.58
45793;BME280;31495;42.740;22.908;2022-10-16T04:05:24;93776.97;;;5.22;74.73
45793;BME280;31495;42.740;22.908;2022-10-16T04:06:24;93814.00;;;5.44;74.77
45793;BME280;31495;42.740;22.908;2022-10-16T04:07:23;93791.09;;;5.26;74.59
45793;BME280;31495;42.740;22.908;2022-10-16T04:08:22;93805.97;;;5.39;74.84
45793;BME280;31495;42.740;22.908;2022-10-16T04:09:22;93810.31;;;5.39;74.38
45793;BME280;31495;42.740;22.908;2022-10-16T04:10:22;93779.69;;;5.12;74.28
45793;BME280;31495;42.740;22.908;2022-10-16T04:11:22;93789.63;;;5.15;74.34
45793;BME280;31495;42.740;22.908;2022-10-16T04:12:21;93816.91;;;5.33;74.40
45793;BME280;31495;42.740;22.908;2022-10-16T04:13:21;93807.91;;;5.29;74.12
45793;BME280;31495;42.740;22.908;2022-10-16T04:14:21;93741.84;;;4.73;73.91
45793;BME280;31495;42.740;22.908;2022-10-16T04:15:20;93804.09;;;5.25;73.81
45793;BME280;31495;42.740;22.908;2022-10-16T04:16:19;93823.78;;;5.32;73.90
45793;BME280;31495;42.740;22.908;2022-10-16T04:17:19;93823.47;;;5.36;73.87
45793;BME280;31495;42.740;22.908;2022-10-16T04:18:18;93792.69;;;5.19;73.83
45793;BME280;31495;42.740;22.908;2022-10-16T04:19:18;93823.31;;;5.37;73.53
45793;BME280;31495;42.740;22.908;2022-10-16T04:20:17;93815.94;;;5.34;73.32
45793;BME280;31495;42.740;22.908;2022-10-16T04:21:17;93807.13;;;5.28;72.96
45793;BME280;31495;42.740;22.908;2022-10-16T04:22:16;93785.78;;;5.11;72.77
45793;BME280;31495;42.740;22.908;2022-10-16T04:23:16;93792.53;;;5.12;72.60
45793;BME280;31495;42.740;22.908;2022-10-16T04:24:15;93818.50;;;5.26;72.92
45793;BME280;31495;42.740;22.908;2022-10-16T04:25:15;93798.75;;;5.18;72.77
45793;BME280;31495;42.740;22.908;2022-10-16T04:26:15;93818.81;;;5.23;72.82
45793;BME280;31495;42.740;22.908;2022-10-16T04:27:14;93809.38;;;5.23;72.98
45793;BME280;31495;42.740;22.908;2022-10-16T04:28:13;93817.38;;;5.28;72.87
45793;BME280;31495;42.740;22.908;2022-10-16T04:29:13;93812.56;;;5.25;72.98
45793;BME280;31495;42.740;22.908;2022-10-16T04:30:12;93776.03;;;4.99;72.96
45793;BME280;31495;42.740;22.908;2022-10-16T04:31:12;93820.28;;;5.17;72.73
45793;BME280;31495;42.740;22.908;2022-10-16T04:32:11;93794.94;;;4.97;73.35
45793;BME280;31495;42.740;22.908;2022-10-16T04:33:11;93784.50;;;4.83;73.37
45793;BME280;31495;42.740;22.908;2022-10-16T04:34:12;93785.44;;;4.82;73.45
45793;BME280;31495;42.740;22.908;2022-10-16T04:35:11;93800.69;;;4.91;73.42
45793;BME280;31495;42.740;22.908;2022-10-16T04:36:11;93798.13;;;4.91;73.59
45793;BME280;31495;42.740;22.908;2022-10-16T04:37:10;93789.13;;;4.79;73.49
45793;BME280;31495;42.740;22.908;2022-10-16T04:38:10;93803.88;;;4.93;73.80
45793;BME280;31495;42.740;22.908;2022-10-16T04:39:09;93809.38;;;4.99;73.41
45793;BME280;31495;42.740;22.908;2022-10-16T04:40:09;93810.78;;;5.01;74.06
45793;BME280;31495;42.740;22.908;2022-10-16T04:41:09;93819.78;;;4.97;73.49
45793;BME280;31495;42.740;22.908;2022-10-16T04:42:09;93823.44;;;4.94;73.38
45793;BME280;31495;42.740;22.908;2022-10-16T04:43:08;93800.66;;;4.83;73.01
45793;BME280;31495;42.740;22.908;2022-10-16T04:44:08;93835.66;;;5.01;72.88
45793;BME280;31495;42.740;22.908;2022-10-16T04:45:08;93839.16;;;5.00;73.17
45793;BME280;31495;42.740;22.908;2022-10-16T04:46:08;93840.78;;;5.01;72.89
45793;BME280;31495;42.740;22.908;2022-10-16T04:47:09;93827.13;;;4.92;72.33
45793;BME280;31495;42.740;22.908;2022-10-16T04:48:08;93815.09;;;4.84;72.40
45793;BME280;31495;42.740;22.908;2022-10-16T04:49:08;93836.91;;;4.96;72.68
45793;BME280;31495;42.740;22.908;2022-10-16T04:50:07;93826.31;;;4.91;72.92
45793;BME280;31495;42.740;22.908;2022-10-16T04:51:07;93821.50;;;4.88;73.06
45793;BME280;31495;42.740;22.908;2022-10-16T04:52:06;93841.88;;;4.98;73.36
45793;BME280;31495;42.740;22.908;2022-10-16T04:53:07;93826.00;;;4.94;73.23
45793;BME280;31495;42.740;22.908;2022-10-16T04:54:08;93822.50;;;4.95;73.59
45793;BME280;31495;42.740;22.908;2022-10-16T04:55:08;93817.03;;;4.90;73.67
45793;BME280;31495;42.740;22.908;2022-10-16T04:56:08;93833.22;;;4.99;73.89
45793;BME280;31495;42.740;22.908;2022-10-16T04:57:07;93837.91;;;5.12;73.78
45793;BME280;31495;42.740;22.908;2022-10-16T04:58:07;93828.59;;;5.03;73.71
45793;BME280;31495;42.740;22.908;2022-10-16T04:59:06;93809.69;;;4.95;73.97
45793;BME280;31495;42.740;22.908;2022-10-16T05:00:06;93823.78;;;5.00;74.00
45793;BME280;31495;42.740;22.908;2022-10-16T05:01:07;93846.22;;;5.14;73.80
45793;BME280;31495;42.740;22.908;2022-10-16T05:02:06;93832.09;;;5.02;73.89
45793;BME280;31495;42.740;22.908;2022-10-16T05:03:06;93829.88;;;5.07;73.46
45793;BME280;31495;42.740;22.908;2022-10-16T05:04:08;93817.84;;;4.99;73.19
45793;BME280;31495;42.740;22.908;2022-10-16T05:05:07;93836.59;;;5.08;73.29
45793;BME280;31495;42.740;22.908;2022-10-16T05:06:07;93842.56;;;5.17;73.15
45793;BME280;31495;42.740;22.908;2022-10-16T05:07:07;93850.25;;;5.17;73.09
45793;BME280;31495;42.740;22.908;2022-10-16T05:08:06;93801.66;;;4.82;73.10
45793;BME280;31495;42.740;22.908;2022-10-16T05:09:06;93847.19;;;5.13;73.23
45793;BME280;31495;42.740;22.908;2022-10-16T05:10:06;93848.16;;;5.12;73.22
45793;BME280;31495;42.740;22.908;2022-10-16T05:11:05;93825.06;;;4.95;73.52
45793;BME280;31495;42.740;22.908;2022-10-16T05:12:05;93853.91;;;5.06;73.42
45793;BME280;31495;42.740;22.908;2022-10-16T05:13:04;93854.88;;;5.05;73.37
45793;BME280;31495;42.740;22.908;2022-10-16T05:14:04;93834.03;;;5.00;73.40
45793;BME280;31495;42.740;22.908;2022-10-16T05:15:04;93860.84;;;5.13;73.36
45793;BME280;31495;42.740;22.908;2022-10-16T05:16:03;93845.13;;;5.08;73.44
45793;BME280;31495;42.740;22.908;2022-10-16T05:17:03;93852.16;;;5.06;73.84
45793;BME280;31495;42.740;22.908;2022-10-16T05:18:03;93854.06;;;5.04;73.70
45793;BME280;31495;42.740;22.908;2022-10-16T05:19:03;93864.19;;;5.22;73.71
45793;BME280;31495;42.740;22.908;2022-10-16T05:20:03;93854.09;;;5.12;73.62
45793;BME280;31495;42.740;22.908;2022-10-16T05:21:03;93869.97;;;5.24;73.44
45793;BME280;31495;42.740;22.908;2022-10-16T05:22:03;93826.66;;;5.05;73.50
45793;BME280;31495;42.740;22.908;2022-10-16T05:23:02;93848.97;;;5.12;73.04
45793;BME280;31495;42.740;22.908;2022-10-16T05:24:02;93808.69;;;4.88;73.04
45793;BME280;31495;42.740;22.908;2022-10-16T05:25:01;93868.53;;;5.30;72.92
45793;BME280;31495;42.740;22.908;2022-10-16T05:26:00;93861.97;;;5.27;72.27
45793;BME280;31495;42.740;22.908;2022-10-16T05:27:00;93839.19;;;5.16;72.48
45793;BME280;31495;42.740;22.908;2022-10-16T05:27:59;93851.22;;;5.24;72.26
45793;BME280;31495;42.740;22.908;2022-10-16T05:28:59;93811.25;;;4.96;72.09
45793;BME280;31495;42.740;22.908;2022-10-16T05:29:58;93792.34;;;4.81;72.15
45793;BME280;31495;42.740;22.908;2022-10-16T05:30:58;93870.13;;;5.39;71.79
45793;BME280;31495;42.740;22.908;2022-10-16T05:31:58;93816.56;;;5.03;71.76
45793;BME280;31495;42.740;22.908;2022-10-16T05:32:58;93830.38;;;5.10;72.13
45793;BME280;31495;42.740;22.908;2022-10-16T05:34:01;93866.16;;;5.37;72.45
45793;BME280;31495;42.740;22.908;2022-10-16T05:35:01;93873.84;;;5.37;72.55